Pagrindinis puslapis
METAR-TAF:

METAR-TAF

Oro uostai :

Resifė, Pernambuco, Brazilija

platuma: 08-08S, ilguma: 034-55W, Aukštis: 19 m

Dabartinis oras

Ataskaita buvo paskelbta 18 minutes, ne 22:00 UTC
Vėjas 12 kt iš Pietų/Pietryčių
Temperatūra 25°C
Drėgmė 74%
Slėgis 1015 hPa
Matomumas 10 km arba daugiau
Su prošvaistėmis ne aukštis 2200 ft

METAR: SBRF 162200Z 16012KT 9999 BKN022 25/20 Q1015

Laikas: 19:18 (22:18 UTC)

Prognozė

Ataskaita buvo paskelbta 6 valandos ir 18 minutes, ne 16:00 UTC
Prognozė galioja nuo 16 metu 18 UTC su 17 metu 18 UTC
Vėjas 12 kt iš Pietryčių
Matomumas: 8000 m
Išsisklaidę debesys ne aukštis 2300 ft
lietus
Tapsmas
nuo 17 metu 02 UTC su 17 metu 04 UTC
Vėjas 8 kt iš Pietryčių
Su prošvaistėmis ne aukštis 1700 ft
Tapsmas
nuo 17 metu 08 UTC su 17 metu 10 UTC
Vėjas 12 kt iš Pietryčių
Mažai debesys ne aukštis 1500 ft
Išsisklaidę debesys ne aukštis 2200 ft

TAF: SBRF 161600Z 1618/1718 14012KT 8000 SHRA SCT023 TX27/1618Z TN23/1704Z BECMG 1702/1704 13008KT BKN017 BECMG 1708/1710 14012KT FEW015 SCT022 RMK PAY

Orai ataskaitas ir orų prognozės (METAR, TAF).

turimą stotys yra geltonos ir raudonos taškus žemėlapyje.

Perkelti pele per norėdami pamatyti stoties vardą.

Tada spustelėkite, norėdami matyti oro stebėjimo ir prognozės.

Norėdami pakeisti žemėlapį: spustelėkite ant žalios mygtukų su juodo kryžiaus žemyn,; žalią mygtuką su brūkšneliu, jei norite nutolinti; arba žalių rodyklių gretimoms žemėlapius.


METAR-TAF: